createdAt,value
2022-09-26T00:00:47.687Z,991.06
2022-09-26T00:01:47.748Z,991.01
2022-09-26T00:02:47.811Z,990.99
2022-09-26T00:03:47.619Z,991.02
2022-09-26T00:04:47.606Z,991.05
2022-09-26T00:05:47.575Z,991.05
2022-09-26T00:06:47.570Z,990.99
2022-09-26T00:07:47.555Z,990.98
2022-09-26T00:08:47.537Z,991.00
2022-09-26T00:09:47.550Z,990.94
2022-09-26T00:10:47.520Z,990.96
2022-09-26T00:11:47.505Z,990.97
2022-09-26T00:12:47.497Z,990.99
2022-09-26T00:13:47.484Z,990.97
2022-09-26T00:14:47.469Z,990.96
2022-09-26T00:15:47.483Z,990.96
2022-09-26T00:16:47.536Z,990.95
2022-09-26T00:17:47.440Z,990.90
2022-09-26T00:18:47.450Z,990.90
2022-09-26T00:19:47.417Z,990.88
2022-09-26T00:20:47.426Z,990.88
2022-09-26T00:21:47.392Z,990.85
2022-09-26T00:22:47.379Z,990.84
2022-09-26T00:23:47.381Z,990.82
2022-09-26T00:24:47.377Z,990.82
2022-09-26T00:25:47.372Z,990.81
2022-09-26T00:26:47.336Z,990.76
2022-09-26T00:27:47.335Z,990.81
2022-09-26T00:28:47.312Z,990.74
2022-09-26T00:29:47.298Z,990.70
2022-09-26T00:30:47.379Z,990.69
2022-09-26T00:31:47.300Z,990.69
2022-09-26T00:32:47.271Z,990.68
2022-09-26T00:33:47.275Z,990.72
2022-09-26T00:34:47.263Z,990.69
2022-09-26T00:35:47.233Z,990.65
2022-09-26T00:36:47.241Z,990.69
2022-09-26T00:37:47.210Z,990.67
2022-09-26T00:38:47.199Z,990.65
2022-09-26T00:39:47.191Z,990.61
2022-09-26T00:40:47.257Z,990.58
2022-09-26T00:41:47.185Z,990.60
2022-09-26T00:42:47.152Z,990.59
2022-09-26T00:43:47.142Z,990.54
2022-09-26T00:44:47.156Z,990.54
2022-09-26T00:45:47.186Z,990.53
2022-09-26T00:46:47.115Z,990.52
2022-09-26T00:47:47.106Z,990.46
2022-09-26T00:48:47.090Z,990.49
2022-09-26T00:49:47.099Z,990.50
2022-09-26T00:50:47.084Z,990.45
2022-09-26T00:51:47.062Z,990.44
2022-09-26T00:52:47.045Z,990.41
2022-09-26T00:53:47.033Z,990.42
2022-09-26T00:54:47.044Z,990.42
2022-09-26T00:55:47.015Z,990.45
2022-09-26T00:56:47.004Z,990.42
2022-09-26T00:57:46.993Z,990.40
2022-09-26T00:58:46.977Z,990.40
2022-09-26T00:59:46.966Z,990.37
2022-09-26T01:00:46.978Z,990.36
2022-09-26T01:01:47.101Z,990.33
2022-09-26T01:02:47.128Z,990.31
2022-09-26T01:03:46.923Z,990.34
2022-09-26T01:04:46.911Z,990.35
2022-09-26T01:05:46.921Z,990.32
2022-09-26T01:06:46.987Z,990.32
2022-09-26T01:07:46.877Z,990.30
2022-09-26T01:08:46.866Z,990.27
2022-09-26T01:09:46.857Z,990.28
2022-09-26T01:10:47.052Z,990.27
2022-09-26T01:11:46.861Z,990.27
2022-09-26T01:12:46.821Z,990.27
2022-09-26T01:13:46.811Z,990.24
2022-09-26T01:14:46.816Z,990.22
2022-09-26T01:15:46.810Z,990.22
2022-09-26T01:16:46.858Z,990.17
2022-09-26T01:17:46.765Z,990.11
2022-09-26T01:18:46.755Z,990.09
2022-09-26T01:19:47.091Z,990.06
2022-09-26T01:20:46.754Z,990.03
2022-09-26T01:21:46.719Z,990.06
2022-09-26T01:22:46.726Z,990.06
2022-09-26T01:23:46.701Z,990.02
2022-09-26T01:24:46.694Z,990.00
2022-09-26T01:25:46.693Z,990.02
2022-09-26T01:26:46.664Z,990.00
2022-09-26T01:27:46.653Z,989.99
2022-09-26T01:28:46.641Z,990.03
2022-09-26T01:29:46.745Z,989.99
2022-09-26T01:30:46.718Z,989.99
2022-09-26T01:31:46.608Z,990.02
2022-09-26T01:32:46.594Z,990.00
2022-09-26T01:33:46.585Z,989.96
2022-09-26T01:34:46.597Z,989.99
2022-09-26T01:35:46.565Z,989.95
2022-09-26T01:36:46.582Z,989.97
2022-09-26T01:37:46.538Z,989.97
2022-09-26T01:38:46.570Z,989.92
2022-09-26T01:39:46.520Z,989.91
2022-09-26T01:40:46.512Z,989.91
2022-09-26T01:41:46.513Z,989.92
2022-09-26T01:42:46.516Z,989.92
2022-09-26T01:43:46.494Z,989.88
2022-09-26T01:44:46.459Z,989.89
2022-09-26T01:45:46.551Z,989.89
2022-09-26T01:46:46.449Z,989.87
2022-09-26T01:47:46.479Z,989.84
2022-09-26T01:48:46.452Z,989.86
2022-09-26T01:49:46.406Z,989.85
2022-09-26T01:50:46.391Z,989.81
2022-09-26T01:51:46.385Z,989.85
2022-09-26T01:52:46.371Z,989.88
2022-09-26T01:53:46.393Z,989.85
2022-09-26T01:54:46.368Z,989.78
2022-09-26T01:55:46.349Z,989.82
2022-09-26T01:56:46.370Z,989.79
2022-09-26T01:57:46.349Z,989.79
2022-09-26T01:58:46.372Z,989.81
2022-09-26T01:59:46.311Z,989.75
2022-09-26T02:00:46.382Z,989.77
2022-09-26T02:01:46.402Z,989.73
2022-09-26T02:02:46.309Z,989.74
2022-09-26T02:03:46.274Z,989.70
2022-09-26T02:04:46.244Z,989.73
2022-09-26T02:05:46.230Z,989.74
2022-09-26T02:06:46.235Z,989.71
2022-09-26T02:07:46.348Z,989.66
2022-09-26T02:08:46.222Z,989.65
2022-09-26T02:09:46.200Z,989.66
2022-09-26T02:10:46.190Z,989.65
2022-09-26T02:11:46.208Z,989.64
2022-09-26T02:12:46.171Z,989.57
2022-09-26T02:13:46.255Z,989.59
2022-09-26T02:14:46.131Z,989.56
2022-09-26T02:15:46.117Z,989.53
2022-09-26T02:16:46.234Z,989.50
2022-09-26T02:17:46.092Z,989.50
2022-09-26T02:18:46.100Z,989.49
2022-09-26T02:19:46.118Z,989.46
2022-09-26T02:20:46.056Z,989.40
2022-09-26T02:21:46.058Z,989.44
2022-09-26T02:22:46.042Z,989.44
2022-09-26T02:23:46.029Z,989.45
2022-09-26T02:24:46.037Z,989.39
2022-09-26T02:25:46.007Z,989.33
2022-09-26T02:26:46.006Z,989.35
2022-09-26T02:27:46.011Z,989.41
2022-09-26T02:28:45.967Z,989.36
2022-09-26T02:29:45.977Z,989.36
2022-09-26T02:30:45.966Z,989.33
2022-09-26T02:31:46.038Z,989.36
2022-09-26T02:32:45.926Z,989.35
2022-09-26T02:33:46.003Z,989.36
2022-09-26T02:34:45.984Z,989.35
2022-09-26T02:35:45.889Z,989.37
2022-09-26T02:36:45.880Z,989.39
2022-09-26T02:37:45.863Z,989.34
2022-09-26T02:38:45.854Z,989.30
2022-09-26T02:39:45.860Z,989.30
2022-09-26T02:40:45.931Z,989.28
2022-09-26T02:41:45.821Z,989.28
2022-09-26T02:42:45.853Z,989.26
2022-09-26T02:43:45.834Z,989.24
2022-09-26T02:44:45.787Z,989.18
2022-09-26T02:45:45.838Z,989.23
2022-09-26T02:46:45.761Z,989.18
2022-09-26T02:47:45.757Z,989.19
2022-09-26T02:48:45.763Z,989.18
2022-09-26T02:49:45.733Z,989.15
2022-09-26T02:50:45.719Z,989.15
2022-09-26T02:51:45.708Z,989.15
2022-09-26T02:52:45.696Z,989.15
2022-09-26T02:53:45.700Z,989.16
2022-09-26T02:54:45.671Z,989.10
2022-09-26T02:55:45.681Z,989.11
2022-09-26T02:56:45.652Z,989.10
2022-09-26T02:57:45.634Z,989.05
2022-09-26T02:58:45.649Z,989.09
2022-09-26T02:59:45.617Z,989.07
2022-09-26T03:00:45.689Z,989.05
2022-09-26T03:01:45.612Z,989.05
2022-09-26T03:02:45.605Z,989.04
2022-09-26T03:03:45.675Z,989.03
2022-09-26T03:04:45.644Z,988.99
2022-09-26T03:05:45.566Z,988.98
2022-09-26T03:06:45.535Z,988.97
2022-09-26T03:07:45.603Z,988.94
2022-09-26T03:08:45.530Z,988.93
2022-09-26T03:09:45.503Z,988.91
2022-09-26T03:10:45.500Z,988.90
2022-09-26T03:11:45.476Z,988.89
2022-09-26T03:12:45.626Z,988.89
2022-09-26T03:13:45.454Z,988.83
2022-09-26T03:14:45.542Z,988.78
2022-09-26T03:15:45.462Z,988.78
2022-09-26T03:16:45.536Z,988.76
2022-09-26T03:17:45.531Z,988.74
2022-09-26T03:18:45.452Z,988.72
2022-09-26T03:19:45.385Z,988.66
2022-09-26T03:20:45.376Z,988.67
2022-09-26T03:21:45.385Z,988.70
2022-09-26T03:22:45.545Z,988.69
2022-09-26T03:23:45.360Z,988.69
2022-09-26T03:24:45.330Z,988.65
2022-09-26T03:25:45.320Z,988.69
2022-09-26T03:26:45.306Z,988.62
2022-09-26T03:27:45.442Z,988.58
2022-09-26T03:28:45.561Z,988.67
2022-09-26T03:29:45.273Z,988.57
2022-09-26T03:30:45.284Z,988.56
2022-09-26T03:31:45.360Z,988.53
2022-09-26T03:32:45.239Z,988.54
2022-09-26T03:33:45.251Z,988.60
2022-09-26T03:34:45.216Z,988.56
2022-09-26T03:35:45.201Z,988.60
2022-09-26T03:36:45.214Z,988.59
2022-09-26T03:37:45.185Z,988.59
2022-09-26T03:38:45.225Z,988.57
2022-09-26T03:39:45.159Z,988.55
2022-09-26T03:40:45.323Z,988.54
2022-09-26T03:41:45.136Z,988.55
2022-09-26T03:42:45.145Z,988.56
2022-09-26T03:43:45.113Z,988.58
2022-09-26T03:44:45.111Z,988.55
2022-09-26T03:45:45.115Z,988.51
2022-09-26T03:46:45.095Z,988.46
2022-09-26T03:47:45.089Z,988.45
2022-09-26T03:48:45.061Z,988.45
2022-09-26T03:49:45.063Z,988.46
2022-09-26T03:50:45.036Z,988.45
2022-09-26T03:51:45.042Z,988.42
2022-09-26T03:52:45.012Z,988.45
2022-09-26T03:53:45.001Z,988.39
2022-09-26T03:54:44.989Z,988.38
2022-09-26T03:55:44.999Z,988.35
2022-09-26T03:56:44.967Z,988.33
2022-09-26T03:57:44.980Z,988.35
2022-09-26T03:58:44.944Z,988.31
2022-09-26T03:59:44.937Z,988.33
2022-09-26T04:00:45.028Z,988.33
2022-09-26T04:01:44.943Z,988.30
2022-09-26T04:02:45.023Z,988.28
2022-09-26T04:03:50.053Z,988.30
2022-09-26T04:04:45.880Z,988.23
2022-09-26T04:05:44.864Z,988.25
2022-09-26T04:06:44.939Z,988.19
2022-09-26T04:07:44.849Z,988.17
2022-09-26T04:08:44.853Z,988.19
2022-09-26T04:09:44.840Z,988.14
2022-09-26T04:10:44.810Z,988.15
2022-09-26T04:11:44.800Z,988.09
2022-09-26T04:12:44.816Z,988.08
2022-09-26T04:13:53.536Z,988.12
2022-09-26T04:14:45.765Z,988.06
2022-09-26T04:15:44.775Z,988.03
2022-09-26T04:16:44.818Z,988.04
2022-09-26T04:17:44.731Z,988.00
2022-09-26T04:18:44.740Z,987.99
2022-09-26T04:19:44.733Z,987.99
2022-09-26T04:20:44.699Z,988.00
2022-09-26T04:21:44.689Z,987.98
2022-09-26T04:22:44.682Z,987.94
2022-09-26T04:23:44.665Z,987.93
2022-09-26T04:24:44.770Z,987.86
2022-09-26T04:25:44.643Z,987.88
2022-09-26T04:26:44.632Z,987.86
2022-09-26T04:27:44.627Z,987.88
2022-09-26T04:28:44.640Z,987.88
2022-09-26T04:29:44.597Z,987.85
2022-09-26T04:30:44.589Z,987.83
2022-09-26T04:31:44.657Z,987.81
2022-09-26T04:32:44.566Z,987.81
2022-09-26T04:33:44.556Z,987.81
2022-09-26T04:34:44.656Z,987.76
2022-09-26T04:35:44.533Z,987.75
2022-09-26T04:36:44.523Z,987.75
2022-09-26T04:37:44.512Z,987.75
2022-09-26T04:38:44.505Z,987.79
2022-09-26T04:39:44.509Z,987.73
2022-09-26T04:40:44.526Z,987.71
2022-09-26T04:41:44.469Z,987.70
2022-09-26T04:42:44.478Z,987.67
2022-09-26T04:43:44.546Z,987.68
2022-09-26T04:44:44.466Z,987.67
2022-09-26T04:45:44.573Z,987.68
2022-09-26T04:46:44.441Z,987.67
2022-09-26T04:47:44.410Z,987.70
2022-09-26T04:48:44.415Z,987.66
2022-09-26T04:49:44.425Z,987.64
2022-09-26T04:50:44.387Z,987.64
2022-09-26T04:51:44.352Z,987.59
2022-09-26T04:52:44.389Z,987.60
2022-09-26T04:53:44.353Z,987.57
2022-09-26T04:54:44.323Z,987.56
2022-09-26T04:55:44.425Z,987.55
2022-09-26T04:56:44.303Z,987.57
2022-09-26T04:57:44.290Z,987.56
2022-09-26T04:58:44.300Z,987.57
2022-09-26T04:59:44.288Z,987.53
2022-09-26T05:00:44.273Z,987.52
2022-09-26T05:01:44.298Z,987.56
2022-09-26T05:02:44.273Z,987.52
2022-09-26T05:03:44.244Z,987.50
2022-09-26T05:04:44.213Z,987.53
2022-09-26T05:05:44.219Z,987.55
2022-09-26T05:06:44.205Z,987.50
2022-09-26T05:07:44.176Z,987.49
2022-09-26T05:08:44.168Z,987.43
2022-09-26T05:09:44.153Z,987.44
2022-09-26T05:10:44.167Z,987.39
2022-09-26T05:11:44.132Z,987.43
2022-09-26T05:12:44.122Z,987.41
2022-09-26T05:13:44.112Z,987.38
2022-09-26T05:14:44.103Z,987.36
2022-09-26T05:15:44.113Z,987.30
2022-09-26T05:16:44.116Z,987.31
2022-09-26T05:17:44.075Z,987.32
2022-09-26T05:18:44.063Z,987.28
2022-09-26T05:19:44.073Z,987.27
2022-09-26T05:20:44.036Z,987.28
2022-09-26T05:21:44.045Z,987.25
2022-09-26T05:22:44.031Z,987.28
2022-09-26T05:23:45.254Z,987.20
2022-09-26T05:24:44.019Z,987.25
2022-09-26T05:25:43.983Z,987.17
2022-09-26T05:26:43.979Z,987.20
2022-09-26T05:27:43.958Z,987.19
2022-09-26T05:28:43.949Z,987.17
2022-09-26T05:29:43.936Z,987.20
2022-09-26T05:30:43.945Z,987.21
2022-09-26T05:31:43.937Z,987.20
2022-09-26T05:32:43.902Z,987.19
2022-09-26T05:33:43.889Z,987.18
2022-09-26T05:34:43.880Z,987.15
2022-09-26T05:35:43.894Z,987.14
2022-09-26T05:36:43.862Z,987.14
2022-09-26T05:37:43.844Z,987.15
2022-09-26T05:38:43.971Z,987.12
2022-09-26T05:39:43.955Z,987.11
2022-09-26T05:40:43.885Z,987.15
2022-09-26T05:41:43.804Z,987.13
2022-09-26T05:42:43.791Z,987.14
2022-09-26T05:43:43.781Z,987.14
2022-09-26T05:44:43.808Z,987.09
2022-09-26T05:45:43.781Z,987.13
2022-09-26T05:46:43.822Z,987.10
2022-09-26T05:47:43.736Z,987.13
2022-09-26T05:48:43.750Z,987.08
2022-09-26T05:49:43.712Z,987.06
2022-09-26T05:50:43.861Z,987.03
2022-09-26T05:51:43.691Z,987.05
2022-09-26T05:52:43.708Z,987.06
2022-09-26T05:53:43.667Z,987.04
2022-09-26T05:54:43.676Z,987.07
2022-09-26T05:55:43.645Z,987.08
2022-09-26T05:56:43.721Z,987.07
2022-09-26T05:57:43.625Z,987.08
2022-09-26T05:58:43.619Z,987.11
2022-09-26T05:59:43.606Z,987.10
2022-09-26T06:00:43.680Z,987.10
2022-09-26T06:01:43.696Z,987.15
2022-09-26T06:02:43.679Z,987.10
2022-09-26T06:03:43.578Z,987.08
2022-09-26T06:04:43.547Z,987.07
2022-09-26T06:05:43.540Z,987.03
2022-09-26T06:06:43.524Z,987.03
2022-09-26T06:07:43.550Z,986.98
2022-09-26T06:08:43.531Z,987.04
2022-09-26T06:09:43.615Z,986.96
2022-09-26T06:10:44.580Z,986.93
2022-09-26T06:11:43.468Z,986.96
2022-09-26T06:12:47.577Z,986.95
2022-09-26T06:13:44.480Z,986.89
2022-09-26T06:14:43.437Z,986.91
2022-09-26T06:15:43.430Z,986.86
2022-09-26T06:16:43.508Z,986.92
2022-09-26T06:17:43.441Z,986.93
2022-09-26T06:18:43.417Z,986.93
2022-09-26T06:19:43.378Z,986.89
2022-09-26T06:20:43.374Z,986.86
2022-09-26T06:21:43.386Z,986.89
2022-09-26T06:22:43.350Z,986.91
2022-09-26T06:23:43.337Z,986.84
2022-09-26T06:24:43.324Z,986.85
2022-09-26T06:25:43.314Z,986.85
2022-09-26T06:26:43.340Z,986.85
2022-09-26T06:27:43.288Z,986.87
2022-09-26T06:28:43.280Z,986.82
2022-09-26T06:29:43.270Z,986.83
2022-09-26T06:30:43.257Z,986.79
2022-09-26T06:31:43.358Z,986.85
2022-09-26T06:32:43.233Z,986.85
2022-09-26T06:33:43.231Z,986.82
2022-09-26T06:34:43.210Z,986.85
2022-09-26T06:35:43.291Z,986.82
2022-09-26T06:36:43.213Z,986.79
2022-09-26T06:37:43.180Z,986.79
2022-09-26T06:38:43.168Z,986.72
2022-09-26T06:39:43.156Z,986.69
2022-09-26T06:40:43.250Z,986.66
2022-09-26T06:41:43.153Z,986.68
2022-09-26T06:42:43.244Z,986.63
2022-09-26T06:43:43.113Z,986.55
2022-09-26T06:44:43.102Z,986.50
2022-09-26T06:45:43.091Z,986.49
2022-09-26T06:46:43.122Z,986.52
2022-09-26T06:47:43.087Z,986.52
2022-09-26T06:48:43.090Z,986.51
2022-09-26T06:49:43.047Z,986.50
2022-09-26T06:50:43.066Z,986.49
2022-09-26T06:51:43.025Z,986.50
2022-09-26T06:52:43.012Z,986.49
2022-09-26T06:53:43.002Z,986.49
2022-09-26T06:54:42.987Z,986.43
2022-09-26T06:55:42.976Z,986.36
2022-09-26T06:56:42.989Z,986.35
2022-09-26T06:57:42.957Z,986.35
2022-09-26T06:58:43.042Z,986.33
2022-09-26T06:59:42.934Z,986.33
2022-09-26T07:00:43.134Z,986.32
2022-09-26T07:01:43.065Z,986.32
2022-09-26T07:02:42.918Z,986.31
2022-09-26T07:03:45.686Z,986.32
2022-09-26T07:04:42.878Z,986.33
2022-09-26T07:05:42.895Z,986.33
2022-09-26T07:06:42.876Z,986.31
2022-09-26T07:07:42.852Z,986.32
2022-09-26T07:09:01.579Z,986.35
2022-09-26T07:09:43.821Z,986.36
2022-09-26T07:10:42.814Z,986.32
2022-09-26T07:12:12.416Z,986.35
2022-09-26T07:12:43.805Z,986.28
2022-09-26T07:13:42.776Z,986.27
2022-09-26T07:14:42.784Z,986.26
2022-09-26T07:15:42.798Z,986.26
2022-09-26T07:16:42.777Z,986.22
2022-09-26T07:17:42.731Z,986.22
2022-09-26T07:18:42.723Z,986.18
2022-09-26T07:19:42.711Z,986.18
2022-09-26T07:20:42.720Z,986.21
2022-09-26T07:21:42.714Z,986.20
2022-09-26T07:22:42.675Z,986.20
2022-09-26T07:23:42.670Z,986.22
2022-09-26T07:24:42.653Z,986.23
2022-09-26T07:25:42.663Z,986.21
2022-09-26T07:26:42.638Z,986.24
2022-09-26T07:27:42.621Z,986.24
2022-09-26T07:28:42.640Z,986.25
2022-09-26T07:29:42.603Z,986.24
2022-09-26T07:30:42.716Z,986.27
2022-09-26T07:31:42.657Z,986.21
2022-09-26T07:32:42.566Z,986.23
2022-09-26T07:33:42.581Z,986.16
2022-09-26T07:34:42.542Z,986.19
2022-09-26T07:35:42.536Z,986.18
2022-09-26T07:36:42.540Z,986.21
2022-09-26T07:37:42.531Z,986.17
2022-09-26T07:38:42.498Z,986.14
2022-09-26T07:39:42.489Z,986.15
2022-09-26T07:40:42.558Z,986.11
2022-09-26T07:41:42.466Z,986.13
2022-09-26T07:42:47.786Z,986.08
2022-09-26T07:44:34.730Z,986.08
2022-09-26T07:45:43.446Z,986.07
2022-09-26T07:46:42.484Z,986.08
2022-09-26T07:47:42.399Z,986.10
2022-09-26T07:48:42.409Z,986.03
2022-09-26T07:49:42.378Z,986.01
2022-09-26T07:50:42.366Z,985.95
2022-09-26T07:51:42.354Z,985.97
2022-09-26T07:52:42.341Z,986.02
2022-09-26T07:53:42.336Z,986.01
2022-09-26T07:54:42.562Z,985.92
2022-09-26T07:55:42.333Z,985.97
2022-09-26T07:56:42.295Z,985.89
2022-09-26T07:57:42.285Z,985.95
2022-09-26T07:58:42.280Z,985.87
2022-09-26T07:59:42.265Z,985.90
2022-09-26T08:00:42.271Z,985.89
2022-09-26T08:01:42.312Z,985.86
2022-09-26T08:02:42.364Z,985.86
2022-09-26T08:03:42.240Z,985.90
2022-09-26T08:04:42.207Z,985.88
2022-09-26T08:05:42.199Z,985.92
2022-09-26T08:06:42.190Z,985.99
2022-09-26T08:07:42.349Z,985.90
2022-09-26T08:08:42.184Z,985.89
2022-09-26T08:09:42.158Z,985.88
2022-09-26T08:10:42.140Z,985.86
2022-09-26T08:11:42.146Z,985.89
2022-09-26T08:12:42.117Z,985.94
2022-09-26T08:13:42.208Z,985.92
2022-09-26T08:14:42.097Z,985.87
2022-09-26T08:15:42.207Z,985.90
2022-09-26T08:16:42.071Z,985.87
2022-09-26T08:17:42.069Z,985.85
2022-09-26T08:18:42.068Z,985.87
2022-09-26T08:19:42.047Z,985.82
2022-09-26T08:20:42.050Z,985.87
2022-09-26T08:21:42.042Z,985.86
2022-09-26T08:22:42.008Z,985.89
2022-09-26T08:23:41.995Z,985.86
2022-09-26T08:24:42.011Z,985.83
2022-09-26T08:25:41.972Z,985.78
2022-09-26T08:26:44.653Z,985.75
2022-09-26T08:27:41.953Z,985.77
2022-09-26T08:28:41.936Z,985.76
2022-09-26T08:29:41.928Z,985.71
2022-09-26T08:30:41.937Z,985.74
2022-09-26T08:31:41.995Z,985.68
2022-09-26T08:32:41.914Z,985.75
2022-09-26T08:33:41.885Z,985.75
2022-09-26T08:34:41.888Z,985.76
2022-09-26T08:35:41.905Z,985.78
2022-09-26T08:36:41.846Z,985.75
2022-09-26T08:37:41.862Z,985.80
2022-09-26T08:38:41.824Z,985.76
2022-09-26T08:39:41.834Z,985.76
2022-09-26T08:40:41.928Z,985.78
2022-09-26T08:41:41.797Z,985.76
2022-09-26T08:42:41.779Z,985.80
2022-09-26T08:43:41.793Z,985.75
2022-09-26T08:44:41.762Z,985.73
2022-09-26T08:45:46.649Z,985.73
2022-09-26T08:46:42.838Z,985.76
2022-09-26T08:47:41.727Z,985.68
2022-09-26T08:48:41.729Z,985.68
2022-09-26T08:49:41.728Z,985.61
2022-09-26T08:50:41.717Z,985.62
2022-09-26T08:51:41.794Z,985.62
2022-09-26T08:52:41.669Z,985.69
2022-09-26T08:53:41.659Z,985.62
2022-09-26T08:54:41.647Z,985.60
2022-09-26T08:55:41.640Z,985.67
2022-09-26T08:56:41.650Z,985.64
2022-09-26T08:57:41.818Z,985.64
2022-09-26T08:58:41.604Z,985.65
2022-09-26T08:59:41.596Z,985.69
2022-09-26T09:00:41.578Z,985.54
2022-09-26T09:01:41.763Z,985.59
2022-09-26T09:02:41.619Z,985.53
2022-09-26T09:03:41.568Z,985.54
2022-09-26T09:04:41.548Z,985.55
2022-09-26T09:05:41.553Z,985.55
2022-09-26T09:06:41.529Z,985.53
2022-09-26T09:07:41.509Z,985.55
2022-09-26T09:08:41.491Z,985.53
2022-09-26T09:09:41.482Z,985.53
2022-09-26T09:10:41.499Z,985.50
2022-09-26T09:11:41.463Z,985.52
2022-09-26T09:12:41.445Z,985.51
2022-09-26T09:13:41.454Z,985.42
2022-09-26T09:14:41.425Z,985.45
2022-09-26T09:15:41.474Z,985.44
2022-09-26T09:16:41.424Z,985.46
2022-09-26T09:17:41.391Z,985.44
2022-09-26T09:18:41.379Z,985.51
2022-09-26T09:19:41.371Z,985.48
2022-09-26T09:20:41.355Z,985.50
2022-09-26T09:21:42.118Z,985.47
2022-09-26T09:22:41.355Z,985.50
2022-09-26T09:23:41.324Z,985.53
2022-09-26T09:24:41.313Z,985.48
2022-09-26T09:25:41.306Z,985.48
2022-09-26T09:28:02.466Z,985.44
2022-09-26T09:28:42.267Z,985.36
2022-09-26T09:29:41.258Z,985.36
2022-09-26T09:30:41.251Z,985.36
2022-09-26T09:31:41.286Z,985.40
2022-09-26T09:32:41.248Z,985.44
2022-09-26T09:33:41.217Z,985.38
2022-09-26T09:34:41.202Z,985.33
2022-09-26T09:35:41.196Z,985.25
2022-09-26T09:36:41.178Z,985.29
2022-09-26T09:37:41.193Z,985.31
2022-09-26T09:38:41.182Z,985.27
2022-09-26T09:39:41.148Z,985.29
2022-09-26T09:40:41.236Z,985.19
2022-09-26T09:41:41.134Z,985.20
2022-09-26T09:42:41.136Z,985.28
2022-09-26T09:43:41.102Z,985.14
2022-09-26T09:44:46.246Z,985.21
2022-09-26T09:45:42.080Z,985.23
2022-09-26T09:46:41.149Z,985.19
2022-09-26T09:47:41.057Z,985.16
2022-09-26T09:48:41.237Z,985.14
2022-09-26T09:49:41.036Z,985.13
2022-09-26T09:50:41.023Z,985.11
2022-09-26T09:51:41.024Z,985.06
2022-09-26T09:52:41.020Z,985.18
2022-09-26T09:53:40.991Z,985.10
2022-09-26T09:54:40.999Z,985.19
2022-09-26T09:55:40.970Z,985.15
2022-09-26T09:56:40.956Z,984.98
2022-09-26T09:57:40.971Z,985.01
2022-09-26T09:58:40.944Z,984.99
2022-09-26T09:59:40.925Z,984.96
2022-09-26T10:00:40.911Z,984.95
2022-09-26T10:01:40.903Z,984.88
2022-09-26T10:02:40.984Z,984.88
2022-09-26T10:03:40.881Z,984.91
2022-09-26T10:04:40.877Z,984.82
2022-09-26T10:05:40.950Z,984.87
2022-09-26T10:06:44.201Z,984.83
2022-09-26T10:07:41.835Z,984.82
2022-09-26T10:08:40.852Z,984.86
2022-09-26T10:09:41.094Z,984.90
2022-09-26T10:10:40.823Z,984.80
2022-09-26T10:11:40.793Z,984.94
2022-09-26T10:12:40.810Z,984.84
2022-09-26T10:13:40.772Z,984.81
2022-09-26T10:14:40.759Z,984.85
2022-09-26T10:15:40.940Z,984.77
2022-09-26T10:16:40.738Z,984.78
2022-09-26T10:17:40.727Z,984.76
2022-09-26T10:18:40.733Z,984.77
2022-09-26T10:19:40.703Z,984.66
2022-09-26T10:20:40.693Z,984.62
2022-09-26T10:21:40.697Z,984.59
2022-09-26T10:22:40.691Z,984.64
2022-09-26T10:23:40.659Z,984.62
2022-09-26T10:24:40.650Z,984.58
2022-09-26T10:25:40.637Z,984.60
2022-09-26T10:26:40.642Z,984.64
2022-09-26T10:27:40.642Z,984.60
2022-09-26T10:28:40.602Z,984.58
2022-09-26T10:29:40.593Z,984.57
2022-09-26T10:30:40.581Z,984.60
2022-09-26T10:31:42.842Z,984.47
2022-09-26T10:32:40.562Z,984.59
2022-09-26T10:33:40.549Z,984.56
2022-09-26T10:34:40.558Z,984.51
2022-09-26T10:35:40.526Z,984.54
2022-09-26T10:36:40.514Z,984.51
2022-09-26T10:37:40.529Z,984.49
2022-09-26T10:38:40.489Z,984.50
2022-09-26T10:39:40.488Z,984.43
2022-09-26T10:40:40.511Z,984.52
2022-09-26T10:41:40.460Z,984.49
2022-09-26T10:42:40.605Z,984.46
2022-09-26T10:43:40.438Z,984.46
2022-09-26T10:44:40.427Z,984.45
2022-09-26T10:45:40.477Z,984.38
2022-09-26T10:46:40.500Z,984.37
2022-09-26T10:47:40.417Z,984.39
2022-09-26T10:48:40.382Z,984.39
2022-09-26T10:49:40.374Z,984.35
2022-09-26T10:50:40.358Z,984.41
2022-09-26T10:51:40.367Z,984.41
2022-09-26T10:52:40.362Z,984.42
2022-09-26T10:53:40.331Z,984.37
2022-09-26T10:54:40.322Z,984.34
2022-09-26T10:55:40.325Z,984.43
2022-09-26T10:56:40.313Z,984.46
2022-09-26T10:57:40.287Z,984.39
2022-09-26T10:58:40.306Z,984.33
2022-09-26T10:59:40.266Z,984.33
2022-09-26T11:00:40.268Z,984.42
2022-09-26T11:01:40.291Z,984.41
2022-09-26T11:02:40.231Z,984.33
2022-09-26T11:03:40.361Z,984.31
2022-09-26T11:04:40.211Z,984.32
2022-09-26T11:05:40.192Z,984.36
2022-09-26T11:06:40.207Z,984.29
2022-09-26T11:07:40.170Z,984.29
2022-09-26T11:08:40.165Z,984.28
2022-09-26T11:09:40.150Z,984.31
2022-09-26T11:10:40.138Z,984.28
2022-09-26T11:11:40.152Z,984.22
2022-09-26T11:12:40.121Z,984.24
2022-09-26T11:13:40.107Z,984.22
2022-09-26T11:14:40.115Z,984.23
2022-09-26T11:15:40.351Z,984.25
2022-09-26T11:16:40.134Z,984.24
2022-09-26T11:17:40.084Z,984.28
2022-09-26T11:18:40.053Z,984.24
2022-09-26T11:19:40.039Z,984.22
2022-09-26T11:20:40.031Z,984.18
2022-09-26T11:21:40.017Z,984.19
2022-09-26T11:22:40.030Z,984.20
2022-09-26T11:23:39.994Z,984.16
2022-09-26T11:24:39.986Z,984.16
2022-09-26T11:25:39.993Z,984.14
2022-09-26T11:26:39.987Z,984.15
2022-09-26T11:27:39.952Z,984.15
2022-09-26T11:28:39.941Z,984.13
2022-09-26T11:29:39.937Z,984.10
2022-09-26T11:30:39.935Z,984.06
2022-09-26T11:31:40.072Z,984.11
2022-09-26T11:32:39.899Z,984.05
2022-09-26T11:33:39.910Z,984.03
2022-09-26T11:34:39.877Z,983.97
2022-09-26T11:35:39.885Z,983.97
2022-09-26T11:36:39.853Z,983.98
2022-09-26T11:37:39.872Z,983.97
2022-09-26T11:38:39.858Z,983.92
2022-09-26T11:39:39.818Z,983.91
2022-09-26T11:40:39.918Z,983.93
2022-09-26T11:41:39.793Z,983.87
2022-09-26T11:42:39.786Z,983.81
2022-09-26T11:43:39.797Z,983.81
2022-09-26T11:44:39.764Z,983.78
2022-09-26T11:45:43.927Z,983.79
2022-09-26T11:46:40.890Z,983.74
2022-09-26T11:47:39.727Z,983.68
2022-09-26T11:48:39.725Z,983.70
2022-09-26T11:49:39.727Z,983.73
2022-09-26T11:50:39.712Z,983.75
2022-09-26T11:51:39.686Z,983.67
2022-09-26T11:52:39.677Z,983.60
2022-09-26T11:53:39.667Z,983.69
2022-09-26T11:54:39.671Z,983.66
2022-09-26T11:55:39.649Z,983.68
2022-09-26T11:56:39.660Z,983.67
2022-09-26T11:57:39.616Z,983.70
2022-09-26T11:58:39.609Z,983.70
2022-09-26T11:59:39.630Z,983.62
2022-09-26T12:00:39.588Z,983.74
2022-09-26T12:01:39.588Z,983.64
2022-09-26T12:02:39.689Z,983.62
2022-09-26T12:03:39.681Z,983.67
2022-09-26T12:04:39.540Z,983.61
2022-09-26T12:05:39.551Z,983.67
2022-09-26T12:06:39.518Z,983.62
2022-09-26T12:07:39.525Z,983.62
2022-09-26T12:08:39.520Z,983.55
2022-09-26T12:09:39.484Z,983.41
2022-09-26T12:10:39.495Z,983.47
2022-09-26T12:11:39.462Z,983.46
2022-09-26T12:12:40.691Z,983.49
2022-09-26T12:13:39.443Z,983.42
2022-09-26T12:14:39.433Z,983.36
2022-09-26T12:15:39.511Z,983.38
2022-09-26T12:16:39.409Z,983.36
2022-09-26T12:17:39.395Z,983.32
2022-09-26T12:18:39.407Z,983.31
2022-09-26T12:19:39.371Z,983.34
2022-09-26T12:20:39.361Z,983.29
2022-09-26T12:21:39.372Z,983.26
2022-09-26T12:22:39.342Z,983.24
2022-09-26T12:23:39.327Z,983.20
2022-09-26T12:24:39.322Z,983.21
2022-09-26T12:25:39.325Z,983.20
2022-09-26T12:26:39.297Z,983.23
2022-09-26T12:27:39.286Z,983.21
2022-09-26T12:28:39.273Z,983.25
2022-09-26T12:29:39.262Z,983.19
2022-09-26T12:30:39.278Z,983.18